createdAt,value
2022-08-17T00:00:34.336Z,69.31
2022-08-17T00:03:10.065Z,69.09
2022-08-17T00:05:41.891Z,69.27
2022-08-17T00:08:09.994Z,70.35
2022-08-17T00:10:38.608Z,70.51
2022-08-17T00:13:08.723Z,70.87
2022-08-17T00:15:36.721Z,70.75
2022-08-17T00:19:06.231Z,70.87
2022-08-17T00:20:55.501Z,71.22
2022-08-17T00:23:24.429Z,71.23
2022-08-17T00:25:53.459Z,71.32
2022-08-17T00:28:22.123Z,71.82
2022-08-17T00:30:53.460Z,71.75
2022-08-17T00:33:26.000Z,71.84
2022-08-17T00:35:54.534Z,71.70
2022-08-17T00:38:23.712Z,71.66
2022-08-17T00:40:55.869Z,71.78
2022-08-17T00:43:30.450Z,71.89
2022-08-17T00:45:58.988Z,72.40
2022-08-17T00:48:30.015Z,72.54
2022-08-17T00:51:04.400Z,72.60
2022-08-17T00:53:34.912Z,72.72
2022-08-17T00:56:07.870Z,73.04
2022-08-17T00:58:38.524Z,73.32
2022-08-17T01:01:10.041Z,73.65
2022-08-17T01:03:40.692Z,73.65
2022-08-17T01:06:10.221Z,73.83
2022-08-17T01:08:40.515Z,73.96
2022-08-17T01:11:09.482Z,74.00
2022-08-17T01:13:41.923Z,73.99
2022-08-17T01:16:16.758Z,74.29
2022-08-17T01:18:48.903Z,74.23
2022-08-17T01:21:23.784Z,74.66
2022-08-17T01:23:53.362Z,75.12
2022-08-17T01:26:21.539Z,74.92
2022-08-17T01:28:55.393Z,75.46
2022-08-17T01:31:26.296Z,75.44
2022-08-17T01:33:54.730Z,75.66
2022-08-17T01:36:22.974Z,75.95
2022-08-17T01:38:52.204Z,76.23
2022-08-17T01:41:22.699Z,76.06
2022-08-17T01:43:55.437Z,76.26
2022-08-17T01:46:28.182Z,76.30
2022-08-17T01:48:57.831Z,76.52
2022-08-17T01:51:27.574Z,77.07
2022-08-17T01:54:00.713Z,76.77
2022-08-17T01:56:31.196Z,77.08
2022-08-17T01:58:59.159Z,77.25
2022-08-17T02:01:29.302Z,77.36
2022-08-17T02:04:00.467Z,77.57
2022-08-17T02:06:31.634Z,77.70
2022-08-17T02:09:16.749Z,78.39
2022-08-17T02:11:46.279Z,78.20
2022-08-17T02:14:14.856Z,78.40
2022-08-17T02:16:43.345Z,78.44
2022-08-17T02:19:13.823Z,78.65
2022-08-17T02:21:43.808Z,78.49
2022-08-17T02:24:16.885Z,78.65
2022-08-17T02:26:46.428Z,78.81
2022-08-17T02:29:15.848Z,78.78
2022-08-17T02:31:44.646Z,78.91
2022-08-17T02:34:12.953Z,78.65
2022-08-17T02:36:40.930Z,78.72
2022-08-17T02:39:11.075Z,78.75
2022-08-17T02:41:41.212Z,78.88
2022-08-17T02:44:09.160Z,78.89
2022-08-17T02:46:37.403Z,79.14
2022-08-17T02:49:06.327Z,79.11
2022-08-17T02:51:35.345Z,78.77
2022-08-17T02:54:39.717Z,78.56
2022-08-17T02:56:53.620Z,79.01
2022-08-17T02:59:21.569Z,78.74
2022-08-17T03:01:49.589Z,78.92
2022-08-17T03:04:17.555Z,79.08
2022-08-17T03:06:45.548Z,78.70
2022-08-17T03:09:13.408Z,78.79
2022-08-17T03:11:41.477Z,79.12
2022-08-17T03:14:10.884Z,79.34
2022-08-17T03:16:38.826Z,79.55
2022-08-17T03:19:07.203Z,79.82
2022-08-17T03:21:35.201Z,79.61
2022-08-17T03:24:08.766Z,79.84
2022-08-17T03:26:37.256Z,80.07
2022-08-17T03:29:05.434Z,80.12
2022-08-17T03:31:36.949Z,80.60
2022-08-17T03:34:05.384Z,80.77
2022-08-17T03:36:36.220Z,81.10
2022-08-17T03:39:04.300Z,80.94
2022-08-17T03:41:32.290Z,80.86
2022-08-17T03:44:00.299Z,80.68
2022-08-17T03:46:45.676Z,81.06
2022-08-17T03:49:32.194Z,81.25
2022-08-17T03:52:17.630Z,80.96
2022-08-17T03:55:04.142Z,81.12
2022-08-17T03:57:32.987Z,81.35
2022-08-17T04:00:00.956Z,81.40
2022-08-17T04:02:31.742Z,81.52
2022-08-17T04:05:01.750Z,81.61
2022-08-17T04:07:31.951Z,81.95
2022-08-17T04:10:00.615Z,82.43
2022-08-17T04:12:31.075Z,82.24
2022-08-17T04:14:59.321Z,82.50
2022-08-17T04:17:29.179Z,82.40
2022-08-17T04:19:57.412Z,82.39
2022-08-17T04:22:31.963Z,82.33
2022-08-17T04:25:04.158Z,82.35
2022-08-17T04:27:32.201Z,82.15
2022-08-17T04:30:00.115Z,82.34
2022-08-17T04:33:00.469Z,82.19
2022-08-17T04:35:20.243Z,82.40
2022-08-17T04:37:49.930Z,81.81
2022-08-17T04:40:35.641Z,81.70
2022-08-17T04:43:05.346Z,81.66
2022-08-17T04:45:33.259Z,82.01
2022-08-17T04:48:01.537Z,81.52
2022-08-17T04:50:29.447Z,81.85
2022-08-17T04:52:58.929Z,82.82
2022-08-17T04:55:27.285Z,83.22
2022-08-17T04:57:55.622Z,82.90
2022-08-17T05:00:25.776Z,81.83
2022-08-17T05:02:56.341Z,82.41
2022-08-17T05:05:27.066Z,82.40
2022-08-17T05:07:56.338Z,82.88
2022-08-17T05:10:27.520Z,82.70
2022-08-17T05:12:59.837Z,82.49
2022-08-17T05:15:28.422Z,81.85
2022-08-17T05:18:01.440Z,82.08
2022-08-17T05:20:29.995Z,82.00
2022-08-17T05:23:00.328Z,81.31
2022-08-17T05:25:36.254Z,80.79
2022-08-17T05:28:06.656Z,79.86
2022-08-17T05:30:35.931Z,79.40
2022-08-17T05:33:06.203Z,79.05
2022-08-17T05:35:36.725Z,78.36
2022-08-17T05:38:04.905Z,78.52
2022-08-17T05:40:34.123Z,78.15
2022-08-17T05:43:07.809Z,77.19
2022-08-17T05:45:54.533Z,77.85
2022-08-17T05:48:35.613Z,78.01
2022-08-17T05:51:24.977Z,77.09
2022-08-17T05:54:02.275Z,76.14
2022-08-17T05:56:49.618Z,76.53
2022-08-17T05:59:26.413Z,76.31
2022-08-17T06:01:59.443Z,75.83
2022-08-17T06:04:32.857Z,75.80
2022-08-17T06:07:11.990Z,75.44
2022-08-17T06:09:47.906Z,74.59
2022-08-17T06:12:38.465Z,74.29
2022-08-17T06:15:23.906Z,74.27
2022-08-17T06:17:56.631Z,74.25
2022-08-17T06:20:28.744Z,74.34
2022-08-17T06:23:06.880Z,72.12
2022-08-17T06:25:39.378Z,70.98
2022-08-17T06:28:14.820Z,70.07
2022-08-17T06:30:59.845Z,69.59
2022-08-17T06:33:34.246Z,69.05
2022-08-17T06:36:15.814Z,68.76
2022-08-17T06:38:55.756Z,67.17
2022-08-17T06:41:28.937Z,66.46
2022-08-17T06:44:11.638Z,65.22
2022-08-17T06:47:09.063Z,64.52
2022-08-17T06:49:44.340Z,64.97
2022-08-17T06:52:42.136Z,65.11
2022-08-17T06:55:18.598Z,63.42
2022-08-17T06:57:50.607Z,62.85
2022-08-17T07:00:23.895Z,62.34
2022-08-17T07:02:58.438Z,59.85
2022-08-17T07:05:31.671Z,56.54
2022-08-17T07:08:05.734Z,53.65
2022-08-17T07:10:45.669Z,49.49
2022-08-17T07:13:34.883Z,46.64
2022-08-17T07:16:18.163Z,44.38
2022-08-17T07:18:47.179Z,43.63
2022-08-17T07:21:27.544Z,41.46
2022-08-17T07:24:30.162Z,39.99
2022-08-17T07:27:10.443Z,40.93
2022-08-17T07:29:41.844Z,42.64
2022-08-17T07:32:13.564Z,41.34
2022-08-17T07:35:11.306Z,40.32
2022-08-17T07:37:40.909Z,38.62
2022-08-17T07:40:35.562Z,37.96
2022-08-17T07:43:23.484Z,36.19
2022-08-17T07:46:17.191Z,36.50
2022-08-17T07:48:49.713Z,37.69
2022-08-17T07:51:25.243Z,36.92
2022-08-17T07:53:53.893Z,36.86
2022-08-17T07:56:41.248Z,36.24
2022-08-17T07:59:15.588Z,36.71
2022-08-17T08:01:48.035Z,36.53
2022-08-17T08:07:28.657Z,37.90
2022-08-17T08:10:07.766Z,37.92
2022-08-17T08:12:37.813Z,38.26
2022-08-17T08:15:15.418Z,37.64
2022-08-17T08:17:53.284Z,37.87
2022-08-17T08:20:52.072Z,36.50
2022-08-17T08:23:33.513Z,37.53
2022-08-17T08:26:18.291Z,36.29
2022-08-17T08:28:55.824Z,36.22
2022-08-17T08:31:28.866Z,36.88
2022-08-17T08:34:09.269Z,34.93
2022-08-17T08:37:17.800Z,33.76
2022-08-17T08:40:12.229Z,33.69
2022-08-17T08:42:49.952Z,33.17
2022-08-17T08:45:24.816Z,32.64
2022-08-17T08:48:12.729Z,32.75
2022-08-17T08:51:08.586Z,33.19
2022-08-17T08:53:49.668Z,32.21
2022-08-17T08:56:25.103Z,30.91
2022-08-17T08:59:01.905Z,30.27
2022-08-17T09:01:38.907Z,28.99
2022-08-17T09:04:26.053Z,28.22
2022-08-17T09:07:09.735Z,28.60
2022-08-17T09:09:48.273Z,29.14
2022-08-17T09:12:23.442Z,29.16
2022-08-17T09:14:59.560Z,28.90
2022-08-17T09:17:36.852Z,28.57
2022-08-17T09:20:11.579Z,29.38
2022-08-17T09:23:03.175Z,30.70
2022-08-17T09:25:36.229Z,29.37
2022-08-17T09:28:07.943Z,28.56
2022-08-17T09:30:42.362Z,28.74
2022-08-17T09:33:12.661Z,28.89
2022-08-17T09:35:45.406Z,30.32
2022-08-17T09:38:22.481Z,29.95
2022-08-17T09:40:57.933Z,30.13
2022-08-17T09:43:35.360Z,31.32
2022-08-17T09:46:10.351Z,31.21
2022-08-17T09:48:43.132Z,31.89
2022-08-17T09:51:16.739Z,32.94
2022-08-17T09:53:44.939Z,33.02
2022-08-17T09:56:32.790Z,34.20
2022-08-17T09:59:28.439Z,35.07
2022-08-17T10:02:30.149Z,34.89
2022-08-17T10:05:04.817Z,35.05
2022-08-17T10:07:38.116Z,34.83
2022-08-17T10:10:14.666Z,34.35
2022-08-17T10:12:53.235Z,33.51
2022-08-17T10:15:36.742Z,33.76
2022-08-17T10:18:19.981Z,33.18
2022-08-17T10:21:14.305Z,33.23
2022-08-17T10:24:03.415Z,33.32
2022-08-17T10:26:40.532Z,33.54
2022-08-17T10:29:29.518Z,34.31
2022-08-17T10:32:12.513Z,33.18
2022-08-17T10:35:16.106Z,32.98
2022-08-17T10:38:03.961Z,33.44
2022-08-17T10:40:38.222Z,34.07
2022-08-17T10:43:24.937Z,33.91
2022-08-17T10:46:27.722Z,33.26
2022-08-17T10:49:16.079Z,33.58
2022-08-17T10:51:45.964Z,33.93
2022-08-17T10:54:36.272Z,33.07
2022-08-17T10:57:24.078Z,33.80
2022-08-17T10:59:54.044Z,34.21
2022-08-17T11:02:31.585Z,34.38
2022-08-17T11:05:15.678Z,33.81
2022-08-17T11:08:05.520Z,33.84
2022-08-17T11:10:59.322Z,33.83
2022-08-17T11:13:40.997Z,33.64
2022-08-17T11:16:26.826Z,33.89
2022-08-17T11:19:28.630Z,33.98
2022-08-17T11:22:34.061Z,34.50
2022-08-17T11:25:16.770Z,34.47
2022-08-17T11:27:47.280Z,34.30
2022-08-17T11:30:36.101Z,34.77
2022-08-17T11:33:42.751Z,34.92
2022-08-17T11:36:23.215Z,34.83
2022-08-17T11:39:00.996Z,34.91
2022-08-17T11:41:39.010Z,35.14
2022-08-17T11:44:38.921Z,34.57
2022-08-17T11:47:32.877Z,35.66
2022-08-17T11:50:45.678Z,34.68
2022-08-17T11:54:03.569Z,34.24
2022-08-17T11:56:52.885Z,34.10
2022-08-17T11:59:56.002Z,34.50
2022-08-17T12:02:39.051Z,34.88
2022-08-17T12:05:32.346Z,35.19
2022-08-17T12:08:09.069Z,34.68
2022-08-17T12:10:49.944Z,35.04
2022-08-17T12:13:20.336Z,35.21
2022-08-17T12:15:52.712Z,35.65
2022-08-17T12:18:22.499Z,35.23
2022-08-17T12:21:15.623Z,35.89
2022-08-17T12:23:56.205Z,35.68
2022-08-17T12:26:27.729Z,35.56
2022-08-17T12:29:01.023Z,35.75
2022-08-17T12:31:32.486Z,35.83
2022-08-17T12:34:00.646Z,35.53
2022-08-17T12:36:29.889Z,34.93
2022-08-17T12:39:14.169Z,35.47
2022-08-17T12:41:50.849Z,34.89
2022-08-17T12:44:23.252Z,35.01
2022-08-17T12:46:54.852Z,34.83
2022-08-17T12:49:33.187Z,35.22
2022-08-17T12:52:24.645Z,35.23
2022-08-17T12:54:57.009Z,35.94
2022-08-17T12:57:28.174Z,36.21
2022-08-17T13:00:00.913Z,35.85
2022-08-17T13:02:41.011Z,35.78
2022-08-17T13:05:19.074Z,35.82
2022-08-17T13:07:47.814Z,35.81
2022-08-17T13:10:24.834Z,35.64
2022-08-17T13:12:56.150Z,36.29
2022-08-17T13:15:35.144Z,35.50
2022-08-17T13:18:07.790Z,35.62
2022-08-17T13:20:37.151Z,35.39
2022-08-17T13:23:12.391Z,35.71
2022-08-17T13:25:40.953Z,36.03
2022-08-17T13:28:30.769Z,35.80
2022-08-17T13:31:33.033Z,35.67
2022-08-17T13:34:20.329Z,35.81
2022-08-17T13:36:51.324Z,35.94
2022-08-17T13:39:21.895Z,35.93
2022-08-17T13:41:53.163Z,35.84
2022-08-17T13:44:36.997Z,36.25
2022-08-17T13:47:15.605Z,36.08
2022-08-17T13:49:48.990Z,36.43
2022-08-17T13:52:35.250Z,36.72
2022-08-17T13:55:10.025Z,36.78
2022-08-17T13:57:38.403Z,37.05
2022-08-17T14:00:13.244Z,36.77
2022-08-17T14:02:42.856Z,36.25
2022-08-17T14:05:11.022Z,36.28
2022-08-17T14:07:40.731Z,36.61
2022-08-17T14:10:14.380Z,36.67
2022-08-17T14:12:44.547Z,36.16
2022-08-17T14:15:15.366Z,36.40
2022-08-17T14:17:44.991Z,36.24
2022-08-17T14:20:14.631Z,36.28
2022-08-17T14:22:46.295Z,36.93
2022-08-17T14:25:16.587Z,37.15
2022-08-17T14:27:52.273Z,37.41
2022-08-17T14:30:23.879Z,37.47
2022-08-17T14:32:53.694Z,37.25
2022-08-17T14:35:23.976Z,37.61
2022-08-17T14:37:53.033Z,37.20
2022-08-17T14:40:24.762Z,37.64
2022-08-17T14:42:54.396Z,37.42
2022-08-17T14:45:31.494Z,37.00
2022-08-17T14:48:05.791Z,37.06
2022-08-17T14:50:35.369Z,37.51
2022-08-17T14:53:04.639Z,37.79
2022-08-17T14:55:33.665Z,37.40
2022-08-17T14:58:02.106Z,37.64
2022-08-17T15:00:30.137Z,37.79
2022-08-17T15:03:00.204Z,37.86
2022-08-17T15:05:32.550Z,38.27
2022-08-17T15:08:01.107Z,39.03
2022-08-17T15:10:30.457Z,40.06
2022-08-17T15:13:00.430Z,40.92
2022-08-17T15:15:29.559Z,41.48
2022-08-17T15:17:59.935Z,42.12
2022-08-17T15:20:31.176Z,42.20
2022-08-17T15:23:00.010Z,42.83
2022-08-17T15:25:31.883Z,42.92
2022-08-17T15:28:00.482Z,43.36
2022-08-17T15:30:29.434Z,43.88
2022-08-17T15:32:59.006Z,44.98
2022-08-17T15:35:33.535Z,45.79
2022-08-17T15:38:08.343Z,45.99
2022-08-17T15:40:46.830Z,46.67
2022-08-17T15:43:16.958Z,46.64
2022-08-17T15:45:59.983Z,47.33
2022-08-17T15:48:41.066Z,47.73
2022-08-17T15:51:13.226Z,48.55
2022-08-17T15:53:42.480Z,48.54
2022-08-17T15:56:11.319Z,48.07
2022-08-17T15:58:42.118Z,47.86
2022-08-17T16:01:14.756Z,47.45
2022-08-17T16:04:04.035Z,47.46
2022-08-17T16:06:36.464Z,47.74
2022-08-17T16:09:05.057Z,47.45
2022-08-17T16:11:33.027Z,47.71
2022-08-17T16:14:01.246Z,47.49
2022-08-17T16:16:31.367Z,47.09
2022-08-17T16:18:59.446Z,47.54
2022-08-17T16:21:31.258Z,47.06
2022-08-17T16:24:12.787Z,47.37
2022-08-17T16:26:42.420Z,47.07
2022-08-17T16:29:10.756Z,47.41
2022-08-17T16:31:41.552Z,47.19
2022-08-17T16:34:16.935Z,47.18
2022-08-17T16:36:55.150Z,47.38
2022-08-17T16:39:27.502Z,47.71
2022-08-17T16:41:56.187Z,47.82
2022-08-17T16:44:25.911Z,47.64
2022-08-17T16:46:54.155Z,47.34
2022-08-17T16:49:35.509Z,47.71
2022-08-17T16:52:05.969Z,47.83
2022-08-17T16:54:36.417Z,47.48
2022-08-17T16:57:05.561Z,47.56
2022-08-17T16:59:42.134Z,48.42
2022-08-17T17:02:15.855Z,47.85
2022-08-17T17:04:51.309Z,47.76
2022-08-17T17:07:38.868Z,47.20
2022-08-17T17:10:11.726Z,47.42
2022-08-17T17:13:01.349Z,47.45
2022-08-17T17:15:41.541Z,47.33
2022-08-17T17:18:13.413Z,47.57
2022-08-17T17:20:48.950Z,47.46
2022-08-17T17:23:33.292Z,47.60
2022-08-17T17:26:11.157Z,45.86
2022-08-17T17:28:48.836Z,46.20
2022-08-17T17:31:19.453Z,46.27
2022-08-17T17:33:50.579Z,46.04
2022-08-17T17:36:26.715Z,46.45
2022-08-17T17:38:59.270Z,46.87
2022-08-17T17:41:34.023Z,46.97
2022-08-17T17:44:05.959Z,46.86
2022-08-17T17:46:39.649Z,47.02
2022-08-17T17:49:10.195Z,46.93
2022-08-17T17:52:08.614Z,46.85
2022-08-17T17:55:01.992Z,47.01
2022-08-17T17:57:45.622Z,46.76
2022-08-17T18:00:16.661Z,46.75
2022-08-17T18:02:56.914Z,46.97
2022-08-17T18:05:46.038Z,47.08
2022-08-17T18:08:34.097Z,47.40
2022-08-17T18:11:15.265Z,47.34
2022-08-17T18:14:10.750Z,47.78
2022-08-17T18:16:42.839Z,47.78
2022-08-17T18:19:14.244Z,48.38
2022-08-17T18:21:45.976Z,48.20
2022-08-17T18:24:14.996Z,48.90
2022-08-17T18:26:51.544Z,49.48
2022-08-17T18:29:44.191Z,49.24
2022-08-17T18:32:34.877Z,49.92
2022-08-17T18:35:28.340Z,50.34
2022-08-17T18:37:58.963Z,51.21
2022-08-17T18:40:37.770Z,49.44
2022-08-17T18:43:13.447Z,52.42
2022-08-17T18:45:47.381Z,59.04
2022-08-17T18:48:23.089Z,67.37
2022-08-17T18:50:53.610Z,69.23
2022-08-17T18:53:34.060Z,73.78
2022-08-17T18:56:25.802Z,75.23
2022-08-17T18:59:06.342Z,76.49
2022-08-17T19:01:52.770Z,79.42
2022-08-17T19:04:34.807Z,80.41
2022-08-17T19:07:06.866Z,80.86
2022-08-17T19:09:38.135Z,79.28
2022-08-17T19:12:10.023Z,82.75
2022-08-17T19:14:38.391Z,81.98
2022-08-17T19:17:15.326Z,82.75
2022-08-17T19:19:51.354Z,84.70
2022-08-17T19:22:28.434Z,84.14
2022-08-17T19:25:03.962Z,84.83
2022-08-17T19:27:43.700Z,86.32
2022-08-17T19:30:16.579Z,87.13
2022-08-17T19:32:46.034Z,88.04
2022-08-17T19:35:17.562Z,86.67
2022-08-17T19:37:57.491Z,86.66
2022-08-17T19:40:52.440Z,88.02
2022-08-17T19:43:31.832Z,89.30
2022-08-17T19:46:06.170Z,89.12
2022-08-17T19:48:48.421Z,91.03
2022-08-17T19:51:21.826Z,92.22
2022-08-17T19:54:06.358Z,93.81
2022-08-17T19:56:43.563Z,93.38
2022-08-17T19:59:17.155Z,93.70
2022-08-17T20:01:52.097Z,94.87
2022-08-17T20:04:37.511Z,93.60
2022-08-17T20:07:10.976Z,94.81
2022-08-17T20:09:44.348Z,94.90
2022-08-17T20:12:17.872Z,93.98
2022-08-17T20:14:53.733Z,93.12
2022-08-17T20:17:28.420Z,94.14
2022-08-17T20:20:07.470Z,92.71
2022-08-17T20:22:54.946Z,92.60
2022-08-17T20:25:31.830Z,93.48
2022-08-17T20:28:07.497Z,92.74
2022-08-17T20:30:38.898Z,93.22
2022-08-17T20:33:12.425Z,92.59
2022-08-17T20:36:03.387Z,92.14
2022-08-17T20:38:43.702Z,90.90
2022-08-17T20:41:15.404Z,90.39
2022-08-17T20:43:49.016Z,90.89
2022-08-17T20:46:24.855Z,89.46
2022-08-17T20:48:56.506Z,88.85
2022-08-17T20:51:33.638Z,88.84
2022-08-17T20:54:23.947Z,89.05
2022-08-17T20:56:57.812Z,88.92
2022-08-17T20:59:59.459Z,89.01
2022-08-17T21:02:29.739Z,89.00
2022-08-17T21:05:08.015Z,88.89
2022-08-17T21:07:56.020Z,88.55
2022-08-17T21:10:37.788Z,89.91
2022-08-17T21:13:32.354Z,88.56
2022-08-17T21:16:08.462Z,88.27
2022-08-17T21:18:42.992Z,87.07
2022-08-17T21:21:24.080Z,88.92
2022-08-17T21:24:11.866Z,85.76
2022-08-17T21:26:52.017Z,84.82
2022-08-17T21:29:32.562Z,84.76
2022-08-17T21:32:24.361Z,84.89
2022-08-17T21:35:26.434Z,85.73
2022-08-17T21:38:02.447Z,86.46
2022-08-17T21:40:35.382Z,86.52
2022-08-17T21:43:18.250Z,87.59
2022-08-17T21:45:57.784Z,87.97
2022-08-17T21:48:27.143Z,87.80
2022-08-17T21:51:03.847Z,87.91
2022-08-17T21:53:39.280Z,87.80
2022-08-17T21:56:12.123Z,88.12
2022-08-17T21:58:46.625Z,87.65
2022-08-17T22:01:25.407Z,88.07
2022-08-17T22:04:03.374Z,89.04
2022-08-17T22:06:37.294Z,90.22
2022-08-17T22:09:16.305Z,88.79
2022-08-17T22:12:14.242Z,90.35
2022-08-17T22:14:52.198Z,90.52
2022-08-17T22:17:24.903Z,90.72
2022-08-17T22:19:55.173Z,90.59
2022-08-17T22:22:30.394Z,90.14
2022-08-17T22:25:01.799Z,89.78
2022-08-17T22:27:48.868Z,88.36
2022-08-17T22:30:28.298Z,88.67
2022-08-17T22:32:57.223Z,87.69
2022-08-17T22:35:33.675Z,86.86
2022-08-17T22:38:26.568Z,86.38
2022-08-17T22:40:56.840Z,87.19
2022-08-17T22:43:31.394Z,86.29
2022-08-17T22:46:02.997Z,86.97
2022-08-17T22:48:31.497Z,87.08
2022-08-17T22:51:13.669Z,87.88
2022-08-17T22:54:05.062Z,87.29
2022-08-17T22:56:50.864Z,87.59
2022-08-17T22:59:43.861Z,86.82
2022-08-17T23:02:30.560Z,86.81
2022-08-17T23:05:21.494Z,87.72
2022-08-17T23:07:53.848Z,87.30
2022-08-17T23:10:21.838Z,87.44
2022-08-17T23:12:49.832Z,88.19
2022-08-17T23:15:20.213Z,88.30
2022-08-17T23:17:48.470Z,88.86
2022-08-17T23:20:17.953Z,88.07
2022-08-17T23:22:52.312Z,88.37
2022-08-17T23:25:26.580Z,89.10
2022-08-17T23:27:55.110Z,87.88
2022-08-17T23:30:25.533Z,88.10
2022-08-17T23:32:54.518Z,87.76
2022-08-17T23:35:38.982Z,86.74
2022-08-17T23:38:09.843Z,86.22
2022-08-17T23:40:39.595Z,85.71
2022-08-17T23:43:23.894Z,84.42
2022-08-17T23:45:55.217Z,83.98
2022-08-17T23:48:35.844Z,84.21
2022-08-17T23:51:09.212Z,83.76
2022-08-17T23:53:40.373Z,83.09
2022-08-17T23:56:11.183Z,83.11
2022-08-17T23:58:43.892Z,83.16
